Time;durP1;ratioP1;P1;durP2;ratioP2;P2;SDS_P1;SDS_P2;PMS_P1;PMS_P2;Temp;Humidity;BMP_temperature;BMP_pressure;BME280_temperature;BME280_humidity;BME280_pressure;Samples;Min_cycle;Max_cycle;Signal;HPM_P1;HPM_P2
2023/06/16 00:01:38;;;;;;;13.08;6.58;;;29.10;99.90;;;;;;1838702;76;21684;-74
2023/06/16 00:04:10;;;;;;;11.35;6.58;;;29.10;99.90;;;;;;1837243;76;21127;-75
2023/06/16 00:06:42;;;;;;;11.80;6.78;;;29.10;99.90;;;;;;1834611;76;21230;-75
2023/06/16 00:09:16;;;;;;;13.25;6.92;;;29.10;99.90;;;;;;1860383;76;21201;-78
2023/06/16 00:11:56;;;;;;;11.12;5.90;;;29.20;99.90;;;;;;1854742;76;21091;-78
2023/06/16 00:14:27;;;;;;;11.53;5.90;;;29.20;99.90;;;;;;1843502;75;21085;-77
2023/06/16 00:16:58;;;;;;;10.50;5.90;;;29.20;99.90;;;;;;1845048;76;21844;-76
2023/06/16 00:19:31;;;;;;;12.98;6.20;;;29.20;99.90;;;;;;1837310;76;21251;-76
2023/06/16 00:22:03;;;;;;;9.55;5.72;;;29.20;99.90;;;;;;1829101;76;21126;-77
2023/06/16 00:24:37;;;;;;;12.50;5.55;;;29.10;99.90;;;;;;1833107;76;21723;-75
2023/06/16 00:27:08;;;;;;;13.38;6.75;;;29.10;99.90;;;;;;1813486;78;21095;-76
2023/06/16 00:29:40;;;;;;;18.10;6.78;;;29.10;99.90;;;;;;1840915;75;21563;-78
2023/06/16 00:32:13;;;;;;;19.05;7.53;;;29.10;99.90;;;;;;1854287;75;21068;-76
2023/06/16 00:34:46;;;;;;;13.05;6.70;;;29.10;99.90;;;;;;1814114;77;21120;-76
2023/06/16 00:37:19;;;;;;;10.18;6.30;;;29.10;99.90;;;;;;1810837;77;21194;-76
2023/06/16 00:39:50;;;;;;;16.02;7.17;;;29.20;99.90;;;;;;1809111;77;21772;-77
2023/06/16 00:42:22;;;;;;;15.25;6.35;;;29.30;99.90;;;;;;1792124;77;21230;-77
2023/06/16 00:44:53;;;;;;;12.13;5.97;;;29.40;99.90;;;;;;1769926;79;21291;-77
2023/06/16 00:47:25;;;;;;;25.17;9.35;;;29.40;99.90;;;;;;1779993;77;21123;-74
2023/06/16 00:49:57;;;;;;;10.53;6.15;;;29.50;99.90;;;;;;1797633;78;21189;-75
2023/06/16 00:52:32;;;;;;;8.88;5.37;;;29.60;99.90;;;;;;1824292;76;21060;-77
2023/06/16 00:55:08;;;;;;;18.80;6.87;;;29.70;99.30;;;;;;1804858;77;21214;-77
2023/06/16 00:57:38;;;;;;;12.53;5.33;;;29.70;99.30;;;;;;1814400;77;21722;-77
2023/06/16 01:00:12;;;;;;;11.65;6.35;;;29.80;99.10;;;;;;1804455;77;21178;-73
2023/06/16 01:02:47;;;;;;;11.43;6.12;;;29.80;99.10;;;;;;1752931;80;21179;-75
2023/06/16 01:05:21;;;;;;;12.23;6.70;;;29.90;99.00;;;;;;1736736;80;21192;-75
2023/06/16 01:10:49;;;;;;;18.17;6.33;;;30.10;98.80;;;;;;1819840;76;21141;-74
2023/06/16 01:13:45;;;;;;;30.57;7.30;;;30.10;98.80;;;;;;1896452;74;21082;-75
2023/06/16 01:16:20;;;;;;;30.57;7.10;;;30.20;98.60;;;;;;1851121;75;21184;-73
2023/06/16 01:18:52;;;;;;;20.17;6.65;;;30.40;98.50;;;;;;1875990;75;21096;-73
2023/06/16 01:21:30;;;;;;;14.93;6.30;;;30.50;98.40;;;;;;1862550;75;21468;-74
2023/06/16 01:24:12;;;;;;;40.55;7.62;;;30.60;98.00;;;;;;1836636;76;21173;-73
2023/06/16 01:26:46;;;;;;;22.37;7.17;;;30.60;98.10;;;;;;1887402;73;21161;-75
2023/06/16 01:29:21;;;;;;;36.60;8.00;;;30.70;98.10;;;;;;1917741;73;21130;-74
2023/06/16 01:31:55;;;;;;;10.78;6.08;;;30.80;97.90;;;;;;1883935;74;21086;-77
2023/06/16 01:34:27;;;;;;;26.73;6.25;;;30.90;97.50;;;;;;1884639;74;21215;-76
2023/06/16 01:37:00;;;;;;;9.88;5.30;;;30.90;97.70;;;;;;1875654;74;21117;-75
2023/06/16 01:39:32;;;;;;;15.70;7.00;;;30.90;97.90;;;;;;1869745;75;21099;-74
2023/06/16 01:42:06;;;;;;;27.90;6.78;;;31.00;97.70;;;;;;1898573;73;21107;-77
2023/06/16 01:44:39;;;;;;;31.82;7.05;;;31.20;97.70;;;;;;1894445;74;21112;-77
2023/06/16 01:47:10;;;;;;;14.83;5.92;;;31.20;97.30;;;;;;1920743;73;21160;-75
2023/06/16 01:49:42;;;;;;;29.48;7.15;;;31.30;97.00;;;;;;1919462;73;21724;-74
2023/06/16 01:52:18;;;;;;;23.10;5.97;;;31.50;96.80;;;;;;1899681;73;21141;-72
2023/06/16 01:54:49;;;;;;;27.20;7.53;;;31.50;96.70;;;;;;1891382;74;21228;-72
2023/06/16 01:57:21;;;;;;;23.02;6.65;;;31.70;96.60;;;;;;1926807;73;21075;-76
2023/06/16 02:00:21;;;;;;;8.58;5.70;;;31.70;96.10;;;;;;1897642;74;21158;-77
2023/06/16 02:02:54;;;;;;;35.23;8.00;;;31.70;96.30;;;;;;1894482;74;21082;-75
2023/06/16 02:05:28;;;;;;;40.05;7.62;;;31.70;95.90;;;;;;1901923;74;21107;-75
2023/06/16 02:08:04;;;;;;;21.37;6.67;;;31.70;96.10;;;;;;1898978;74;21204;-73
2023/06/16 02:10:36;;;;;;;26.73;7.08;;;31.70;95.90;;;;;;1904619;73;21154;-73
2023/06/16 02:13:08;;;;;;;28.30;7.80;;;31.80;95.70;;;;;;1907962;74;21098;-75
2023/06/16 02:15:42;;;;;;;48.58;9.78;;;31.90;95.70;;;;;;1895197;74;21153;-73
2023/06/16 02:18:15;;;;;;;19.92;6.00;;;31.90;95.50;;;;;;1900237;74;21252;-74
2023/06/16 02:20:46;;;;;;;30.50;7.08;;;31.90;95.50;;;;;;1898789;74;21201;-76
2023/06/16 02:23:17;;;;;;;28.52;7.17;;;31.80;95.90;;;;;;1897072;74;21647;-75
2023/06/16 02:25:49;;;;;;;17.70;6.50;;;31.80;96.00;;;;;;1889897;74;21142;-74
2023/06/16 02:28:21;;;;;;;24.98;7.40;;;31.80;95.70;;;;;;1898584;73;21611;-75
2023/06/16 02:30:55;;;;;;;31.97;8.03;;;31.70;95.80;;;;;;1907367;74;21128;-73
2023/06/16 02:33:28;;;;;;;15.93;5.53;;;31.70;95.90;;;;;;1906089;74;21797;-75
2023/06/16 02:36:00;;;;;;;12.47;5.42;;;31.70;96.20;;;;;;1899996;74;21091;-76
2023/06/16 02:38:35;;;;;;;38.20;7.95;;;31.70;96.00;;;;;;1862802;76;21235;-76
2023/06/16 02:41:07;;;;;;;31.25;8.55;;;31.70;96.10;;;;;;1907851;73;21637;-75
2023/06/16 02:43:40;;;;;;;22.73;6.37;;;31.80;96.00;;;;;;1917634;73;21071;-76
2023/06/16 02:46:14;;;;;;;12.95;5.00;;;31.80;95.70;;;;;;1920798;72;21167;-76
2023/06/16 02:48:45;;;;;;;12.33;5.00;;;31.90;95.50;;;;;;1925460;73;21090;-75
2023/06/16 02:51:19;;;;;;;10.35;5.30;;;31.90;95.30;;;;;;1912154;73;21208;-75
2023/06/16 02:53:51;;;;;;;31.33;7.28;;;31.90;95.30;;;;;;1913870;73;21229;-75
2023/06/16 02:56:23;;;;;;;40.90;8.98;;;32.00;95.20;;;;;;1910472;73;21157;-74
2023/06/16 02:58:55;;;;;;;33.28;7.05;;;32.00;94.80;;;;;;1906031;74;21102;-73
2023/06/16 03:01:28;;;;;;;18.30;4.70;;;32.00;94.70;;;;;;1907076;74;21140;-76
2023/06/16 03:04:01;;;;;;;21.57;7.62;;;32.10;94.40;;;;;;1893876;73;21129;-75
2023/06/16 03:06:34;;;;;;;37.30;8.35;;;32.10;94.40;;;;;;1896023;74;21127;-73
2023/06/16 03:09:07;;;;;;;9.28;4.65;;;32.10;94.40;;;;;;1892634;73;21145;-76
2023/06/16 03:11:39;;;;;;;28.73;6.60;;;32.10;94.00;;;;;;1905165;74;21585;-79
2023/06/16 03:14:12;;;;;;;7.95;4.80;;;32.10;94.50;;;;;;1813078;77;21091;-76
2023/06/16 03:16:48;;;;;;;28.10;6.80;;;32.10;94.40;;;;;;1874927;75;22511;-76
2023/06/16 03:19:22;;;;;;;16.07;4.62;;;32.20;94.30;;;;;;1917417;73;21120;-76
2023/06/16 03:21:51;;;;;;;26.37;6.62;;;32.20;93.90;;;;;;1901651;74;21103;-74
2023/06/16 03:24:24;;;;;;;38.83;7.90;;;32.20;94.30;;;;;;1903529;73;21213;-77
2023/06/16 03:26:58;;;;;;;27.40;7.42;;;32.30;94.30;;;;;;1881906;74;21071;-74
2023/06/16 03:29:30;;;;;;;8.63;4.90;;;32.40;94.00;;;;;;1904331;73;21076;-73
2023/06/16 03:32:02;;;;;;;11.40;4.40;;;32.50;93.60;;;;;;1911977;73;21555;-74
2023/06/16 03:34:35;;;;;;;10.55;4.75;;;32.50;93.00;;;;;;1914311;73;21594;-75
2023/06/16 03:37:11;;;;;;;16.70;5.17;;;32.40;93.40;;;;;;1901738;73;21197;-79
2023/06/16 03:39:43;;;;;;;9.15;4.62;;;32.40;93.70;;;;;;1907213;73;21621;-77
2023/06/16 03:42:14;;;;;;;8.65;4.25;;;32.50;93.70;;;;;;1901274;73;21237;-76
2023/06/16 03:44:48;;;;;;;8.63;4.70;;;32.60;94.00;;;;;;1906467;73;21209;-74
2023/06/16 03:47:19;;;;;;;10.88;5.00;;;32.70;93.50;;;;;;1914140;73;21078;-75
2023/06/16 03:49:53;;;;;;;14.60;4.85;;;32.90;93.30;;;;;;1907561;73;21157;-74
2023/06/16 03:52:24;;;;;;;8.70;4.40;;;33.00;93.10;;;;;;1903974;73;21144;-75
2023/06/16 03:54:57;;;;;;;11.28;5.33;;;33.10;93.10;;;;;;1907168;73;21659;-74
2023/06/16 03:57:28;;;;;;;16.23;5.30;;;33.30;92.70;;;;;;1843153;76;21137;-74
2023/06/16 04:00:08;;;;;;;15.38;5.08;;;33.40;92.50;;;;;;1863066;74;21202;-75
2023/06/16 04:02:37;;;;;;;16.30;6.08;;;33.50;92.60;;;;;;1885280;74;21226;-75
2023/06/16 04:05:10;;;;;;;19.52;5.45;;;33.70;91.80;;;;;;1909034;73;21185;-74
2023/06/16 04:07:41;;;;;;;11.05;4.92;;;33.70;91.20;;;;;;1891427;74;21156;-73
2023/06/16 04:10:14;;;;;;;15.65;7.17;;;33.70;91.30;;;;;;1940871;72;21172;-73
2023/06/16 04:12:45;;;;;;;14.03;6.08;;;33.80;91.10;;;;;;1920923;73;21116;-75
2023/06/16 04:15:17;;;;;;;12.05;9.65;;;33.80;91.30;;;;;;1926930;72;21153;-76
2023/06/16 04:17:51;;;;;;;62.33;10.75;;;33.80;90.90;;;;;;1867882;74;21200;-75
2023/06/16 04:20:31;;;;;;;89.22;35.50;;;33.90;90.90;;;;;;1869215;74;21149;-75
2023/06/16 04:23:03;;;;;;;92.00;22.45;;;33.90;91.00;;;;;;1876461;74;21782;-74
2023/06/16 04:25:35;;;;;;;15.83;8.28;;;34.00;90.50;;;;;;1892002;74;21126;-75
2023/06/16 04:28:17;;;;;;;12.60;4.85;;;34.20;89.60;;;;;;1885201;76;21181;-77
2023/06/16 04:30:50;;;;;;;15.28;6.87;;;34.20;89.90;;;;;;1875266;75;21151;-73
2023/06/16 04:33:23;;;;;;;16.35;5.22;;;34.30;89.90;;;;;;1898325;73;21503;-72
2023/06/16 04:35:56;;;;;;;34.25;7.70;;;34.30;90.20;;;;;;1917645;73;21114;-74
2023/06/16 04:38:30;;;;;;;22.40;7.92;;;34.30;90.30;;;;;;1926610;72;21153;-73
2023/06/16 04:41:03;;;;;;;37.25;9.18;;;34.30;90.20;;;;;;1877539;75;21165;-75
2023/06/16 04:43:35;;;;;;;34.35;8.55;;;34.20;90.50;;;;;;1920639;72;21134;-74
2023/06/16 04:46:08;;;;;;;16.45;6.22;;;34.10;90.20;;;;;;1925470;72;21153;-74
2023/06/16 04:48:41;;;;;;;8.65;3.90;;;34.10;90.50;;;;;;1913762;74;21291;-75
2023/06/16 04:51:18;;;;;;;6.08;3.65;;;34.20;90.40;;;;;;1894668;74;21922;-82
2023/06/16 04:53:50;;;;;;;6.92;3.70;;;34.30;88.80;;;;;;1892393;74;21241;-82
2023/06/16 04:56:26;;;;;;;11.08;4.20;;;34.30;88.80;;;;;;1875902;74;21147;-80
2023/06/16 04:59:06;;;;;;;8.85;3.95;;;34.40;88.80;;;;;;1908814;73;21646;-79
2023/06/16 05:01:39;;;;;;;7.37;3.37;;;34.40;87.60;;;;;;1904068;73;21105;-77
2023/06/16 05:04:12;;;;;;;6.53;3.58;;;34.30;88.20;;;;;;1902987;73;21213;-79
2023/06/16 05:06:43;;;;;;;7.42;3.37;;;34.40;88.10;;;;;;1893992;73;21185;-77
2023/06/16 05:09:15;;;;;;;12.70;4.15;;;34.50;87.60;;;;;;1906361;73;21099;-76
2023/06/16 05:11:47;;;;;;;15.90;4.70;;;34.50;87.70;;;;;;1904220;73;21183;-75
2023/06/16 05:14:20;;;;;;;6.83;3.77;;;34.50;88.20;;;;;;1906931;73;21154;-73
2023/06/16 05:16:51;;;;;;;6.22;3.60;;;34.60;88.10;;;;;;1894961;74;21100;-75
2023/06/16 05:19:28;;;;;;;8.88;4.25;;;34.60;86.90;;;;;;1867948;76;21092;-73
2023/06/16 05:22:01;;;;;;;14.05;3.45;;;34.50;87.50;;;;;;1890983;73;21217;-74
2023/06/16 05:24:33;;;;;;;5.45;2.90;;;34.50;86.80;;;;;;1930241;73;21126;-76
2023/06/16 05:27:06;;;;;;;21.77;4.15;;;34.50;85.80;;;;;;1893177;74;21078;-73
2023/06/16 05:29:38;;;;;;;7.65;3.50;;;34.60;86.10;;;;;;1897793;74;21128;-76
2023/06/16 05:32:09;;;;;;;6.33;2.80;;;34.70;87.20;;;;;;1885010;74;21186;-74
2023/06/16 05:34:43;;;;;;;5.55;3.35;;;34.80;86.50;;;;;;1924389;72;21206;-75
2023/06/16 05:37:16;;;;;;;7.03;2.95;;;34.80;85.70;;;;;;1906215;72;21186;-76
2023/06/16 05:39:50;;;;;;;7.55;3.50;;;34.80;85.40;;;;;;1902707;73;21052;-75
2023/06/16 05:42:21;;;;;;;5.40;3.10;;;34.80;85.70;;;;;;1875398;75;21138;-76
2023/06/16 05:44:53;;;;;;;8.85;3.17;;;34.70;86.00;;;;;;1907740;73;21139;-74
2023/06/16 05:47:25;;;;;;;4.90;2.67;;;34.80;85.60;;;;;;1927239;72;21135;-76
2023/06/16 05:49:58;;;;;;;6.28;2.90;;;34.90;84.40;;;;;;1913125;73;21687;-76
2023/06/16 05:52:30;;;;;;;11.08;4.10;;;34.80;83.70;;;;;;1899964;73;21522;-73
2023/06/16 05:55:01;;;;;;;5.50;3.40;;;34.80;85.10;;;;;;1921357;72;21231;-72
2023/06/16 05:57:33;;;;;;;8.63;2.90;;;34.80;85.60;;;;;;1902338;72;21127;-80
2023/06/16 06:00:07;;;;;;;11.78;3.22;;;34.90;84.70;;;;;;1893364;74;21323;-80
2023/06/16 06:02:38;;;;;;;23.92;4.37;;;34.90;84.40;;;;;;1886850;73;21103;-77
2023/06/16 06:05:10;;;;;;;8.75;3.08;;;35.00;84.90;;;;;;1883673;75;21247;-76
2023/06/16 06:07:44;;;;;;;9.53;3.08;;;35.00;83.00;;;;;;1904427;72;21665;-78
2023/06/16 06:10:20;;;;;;;9.45;2.85;;;35.10;83.10;;;;;;1897461;73;21088;-75
2023/06/16 06:12:52;;;;;;;20.77;5.92;;;35.00;82.60;;;;;;1871896;75;21189;-76
2023/06/16 06:15:24;;;;;;;20.62;6.35;;;35.00;84.30;;;;;;1902722;73;21198;-75
2023/06/16 06:17:56;;;;;;;123.75;16.82;;;34.90;85.40;;;;;;1921330;72;21729;-76
2023/06/16 06:20:27;;;;;;;32.28;7.70;;;34.80;86.40;;;;;;1907765;73;21190;-76
2023/06/16 06:22:59;;;;;;;64.87;9.25;;;34.60;86.80;;;;;;1910218;73;21117;-78
2023/06/16 06:25:33;;;;;;;59.63;8.83;;;34.50;87.40;;;;;;1911592;73;21056;-77
2023/06/16 06:28:06;;;;;;;33.20;7.15;;;34.40;91.00;;;;;;1907758;73;21075;-75
2023/06/16 06:30:38;;;;;;;30.55;7.90;;;34.30;92.00;;;;;;1915796;73;21157;-75
2023/06/16 06:33:14;;;;;;;11.80;5.55;;;34.20;92.50;;;;;;1925739;72;21087;-76
2023/06/16 06:35:48;;;;;;;14.60;5.40;;;34.10;92.00;;;;;;1869801;75;21199;-74
2023/06/16 06:38:21;;;;;;;9.30;3.98;;;34.10;91.10;;;;;;1890799;74;21066;-75
2023/06/16 06:40:55;;;;;;;23.92;6.00;;;34.10;91.10;;;;;;1900442;73;21127;-78
2023/06/16 06:43:30;;;;;;;36.25;7.15;;;34.00;90.80;;;;;;1907579;73;21108;-79
2023/06/16 06:46:20;;;;;;;13.53;4.37;;;34.00;90.90;;;;;;1914382;74;21190;-76
2023/06/16 06:48:57;;;;;;;13.35;4.83;;;33.90;90.50;;;;;;1914906;73;21221;-79
2023/06/16 06:51:28;;;;;;;8.83;4.50;;;33.80;91.40;;;;;;1913683;73;21048;-81
2023/06/16 06:54:03;;;;;;;8.45;3.90;;;33.80;92.00;;;;;;1912313;73;21162;-74
2023/06/16 06:56:35;;;;;;;9.03;4.50;;;33.70;91.20;;;;;;1927723;72;21118;-76
2023/06/16 06:59:07;;;;;;;5.97;3.90;;;33.80;91.50;;;;;;1913841;75;21133;-74
2023/06/16 07:01:40;;;;;;;8.83;3.55;;;33.80;91.10;;;;;;1920578;72;21076;-76
2023/06/16 07:04:12;;;;;;;7.50;3.50;;;33.80;90.80;;;;;;1915334;73;21220;-75
2023/06/16 07:06:48;;;;;;;8.83;4.53;;;33.80;91.00;;;;;;1933140;72;21111;-75
2023/06/16 07:09:25;;;;;;;13.13;4.70;;;33.80;90.80;;;;;;1916669;73;21113;-77
2023/06/16 07:11:59;;;;;;;6.53;3.42;;;33.80;91.10;;;;;;1901404;73;21159;-74
2023/06/16 07:14:32;;;;;;;11.22;4.40;;;33.80;90.80;;;;;;1909475;74;21060;-77
2023/06/16 07:17:11;;;;;;;14.40;4.12;;;33.90;91.00;;;;;;1901803;74;21124;-76
2023/06/16 07:19:51;;;;;;;8.25;3.55;;;33.90;90.70;;;;;;1908499;74;21115;-75
2023/06/16 07:22:25;;;;;;;9.20;4.37;;;34.00;90.30;;;;;;1876512;75;21099;-77
2023/06/16 07:24:56;;;;;;;15.78;4.50;;;34.00;90.30;;;;;;1865382;75;21284;-75
2023/06/16 07:27:28;;;;;;;5.53;3.35;;;33.80;90.60;;;;;;1904861;73;21058;-75
2023/06/16 07:30:09;;;;;;;5.85;3.45;;;33.60;90.40;;;;;;1916753;73;22410;-75
2023/06/16 07:32:45;;;;;;;4.87;2.58;;;33.50;90.50;;;;;;1903043;73;21458;-75
2023/06/16 07:35:19;;;;;;;7.65;2.92;;;33.30;90.40;;;;;;1904886;73;21201;-75
2023/06/16 07:37:51;;;;;;;5.60;2.40;;;33.20;90.70;;;;;;1880927;73;21096;-75
2023/06/16 07:40:26;;;;;;;3.87;2.33;;;33.10;90.70;;;;;;1922767;72;22091;-75
2023/06/16 07:43:05;;;;;;;4.80;2.80;;;32.90;90.90;;;;;;1920448;73;21127;-73
2023/06/16 07:45:39;;;;;;;7.07;2.80;;;32.90;91.40;;;;;;1898889;73;21132;-76
2023/06/16 07:48:12;;;;;;;7.03;3.02;;;32.90;91.50;;;;;;1900901;73;22294;-75
2023/06/16 07:50:49;;;;;;;5.25;2.20;;;33.00;91.50;;;;;;1912499;74;21091;-76
2023/06/16 07:53:31;;;;;;;4.67;2.25;;;33.20;91.00;;;;;;1915645;73;21182;-75
2023/06/16 07:56:02;;;;;;;5.10;2.40;;;33.30;90.50;;;;;;1924768;73;21103;-78
2023/06/16 07:58:38;;;;;;;7.72;2.40;;;33.40;90.70;;;;;;1878103;75;21098;-73
2023/06/16 08:01:20;;;;;;;3.92;2.37;;;33.50;90.60;;;;;;1921164;72;21099;-74
2023/06/16 08:03:54;;;;;;;5.87;2.62;;;33.50;90.60;;;;;;1920084;73;21223;-75
2023/06/16 08:06:29;;;;;;;4.53;2.55;;;33.60;90.50;;;;;;1925317;73;21258;-77
2023/06/16 08:09:07;;;;;;;7.83;3.00;;;33.70;90.50;;;;;;1900094;74;21227;-77
2023/06/16 08:11:51;;;;;;;7.40;3.08;;;33.70;89.70;;;;;;1914579;72;21068;-76
2023/06/16 08:14:23;;;;;;;6.22;2.58;;;33.70;90.30;;;;;;1909943;73;21157;-75
2023/06/16 08:16:58;;;;;;;3.60;2.75;;;33.60;90.60;;;;;;1891020;75;21147;-76
2023/06/16 08:19:31;;;;;;;9.83;2.92;;;33.50;90.40;;;;;;1906097;74;21113;-77
2023/06/16 08:22:04;;;;;;;3.92;2.52;;;33.50;90.80;;;;;;1904174;73;21505;-74
2023/06/16 08:24:49;;;;;;;5.10;2.62;;;33.40;90.90;;;;;;1905058;73;21180;-76
2023/06/16 08:27:32;;;;;;;4.75;2.92;;;33.30;90.70;;;;;;1900106;74;21191;-77
2023/06/16 08:30:09;;;;;;;5.40;2.67;;;33.20;91.10;;;;;;1902720;74;21204;-76
2023/06/16 08:32:42;;;;;;;4.25;2.90;;;33.20;91.20;;;;;;1903224;73;21281;-77
2023/06/16 08:35:17;;;;;;;5.05;2.72;;;33.10;91.30;;;;;;1901959;73;21174;-78
2023/06/16 08:37:56;;;;;;;4.45;2.70;;;33.00;91.20;;;;;;1913790;74;21123;-76
2023/06/16 08:40:31;;;;;;;7.25;3.17;;;33.00;91.30;;;;;;1914927;73;21142;-76
2023/06/16 08:43:23;;;;;;;7.85;3.58;;;32.90;91.50;;;;;;1899250;74;21171;-75
2023/06/16 08:45:55;;;;;;;7.03;3.05;;;32.90;91.70;;;;;;1887659;73;21140;-74
2023/06/16 08:48:27;;;;;;;37.58;5.75;;;32.90;91.80;;;;;;1896810;73;21118;-75
2023/06/16 08:51:16;;;;;;;8.48;3.17;;;32.80;92.10;;;;;;1902450;73;21099;-75
2023/06/16 08:54:00;;;;;;;6.83;3.20;;;32.80;92.40;;;;;;1875440;74;21252;-76
2023/06/16 08:56:33;;;;;;;5.67;3.30;;;32.70;92.20;;;;;;1910238;74;21481;-76
2023/06/16 08:59:07;;;;;;;9.55;3.50;;;32.70;92.40;;;;;;1902555;73;21115;-72
2023/06/16 09:01:42;;;;;;;7.42;3.30;;;32.70;92.50;;;;;;1898986;73;21136;-76
2023/06/16 09:04:19;;;;;;;4.40;2.90;;;32.60;92.50;;;;;;1904522;73;21189;-76
2023/06/16 09:06:56;;;;;;;6.83;3.42;;;32.60;92.80;;;;;;1907971;74;21135;-78
2023/06/16 09:09:28;;;;;;;9.13;3.77;;;32.60;93.00;;;;;;1887212;75;21095;-75
2023/06/16 09:12:08;;;;;;;10.93;3.60;;;32.60;93.50;;;;;;1899440;74;21114;-75
2023/06/16 09:14:42;;;;;;;10.90;3.83;;;32.60;93.70;;;;;;1895967;74;21487;-77
2023/06/16 09:17:14;;;;;;;7.53;4.00;;;32.70;93.80;;;;;;1909500;73;21133;-74
2023/06/16 09:19:52;;;;;;;10.43;4.87;;;32.60;93.90;;;;;;1919006;72;21106;-74
2023/06/16 09:22:22;;;;;;;7.72;3.85;;;32.70;94.10;;;;;;1908086;73;21083;-77
2023/06/16 09:24:58;;;;;;;10.25;3.50;;;32.70;93.90;;;;;;1914050;73;21246;-74
2023/06/16 09:27:44;;;;;;;9.38;3.77;;;32.70;93.90;;;;;;1892949;73;21118;-74
2023/06/16 09:30:18;;;;;;;7.22;3.90;;;32.70;94.20;;;;;;1855853;74;21620;-75
2023/06/16 09:32:55;;;;;;;10.70;3.87;;;32.80;94.20;;;;;;1869090;76;21081;-75
2023/06/16 09:35:29;;;;;;;6.97;3.33;;;32.70;94.00;;;;;;1890227;73;21142;-75
2023/06/16 09:38:06;;;;;;;6.35;3.35;;;32.70;93.90;;;;;;1898695;74;21121;-75
2023/06/16 09:40:38;;;;;;;6.67;4.10;;;32.70;94.30;;;;;;1888268;74;21075;-75
2023/06/16 09:43:11;;;;;;;9.23;4.65;;;32.60;94.40;;;;;;1888149;73;21439;-74
2023/06/16 09:45:48;;;;;;;8.58;4.17;;;32.50;94.70;;;;;;1908368;73;21767;-75
2023/06/16 09:48:21;;;;;;;6.95;4.00;;;32.50;94.70;;;;;;1884261;74;21144;-73
2023/06/16 09:50:53;;;;;;;10.68;4.25;;;32.40;95.30;;;;;;1839634;74;21107;-76
2023/06/16 09:53:30;;;;;;;10.45;4.70;;;32.30;95.60;;;;;;1933590;73;21744;-76
2023/06/16 09:56:02;;;;;;;9.88;5.00;;;32.30;95.90;;;;;;1916498;74;21103;-78
2023/06/16 09:58:35;;;;;;;11.10;5.28;;;32.30;96.10;;;;;;1913251;73;21164;-75
2023/06/16 10:01:10;;;;;;;9.53;6.50;;;32.30;96.40;;;;;;1923182;73;21176;-76
2023/06/16 10:03:43;;;;;;;8.88;5.03;;;32.20;96.70;;;;;;1881780;74;21549;-79
2023/06/16 10:06:21;;;;;;;10.18;4.97;;;32.10;96.70;;;;;;1846969;76;21109;-75
2023/06/16 10:08:54;;;;;;;7.05;4.65;;;32.10;96.70;;;;;;1868345;75;21193;-76
2023/06/16 10:11:46;;;;;;;10.18;4.60;;;31.90;96.80;;;;;;1865744;75;21582;-74
2023/06/16 10:14:40;;;;;;;10.93;5.20;;;31.90;96.70;;;;;;1905313;73;21277;-74
2023/06/16 10:17:12;;;;;;;9.68;4.78;;;31.90;97.00;;;;;;1912691;73;21233;-75
2023/06/16 10:19:46;;;;;;;9.73;4.67;;;31.90;97.10;;;;;;1885394;74;21540;-75
2023/06/16 10:22:18;;;;;;;11.30;5.05;;;31.90;96.60;;;;;;1931135;73;21125;-73
2023/06/16 10:24:50;;;;;;;9.63;5.30;;;31.80;96.60;;;;;;1888393;74;21592;-76
2023/06/16 10:27:22;;;;;;;8.93;4.85;;;31.80;96.90;;;;;;1953554;72;21143;-75
2023/06/16 10:29:55;;;;;;;11.70;5.65;;;31.80;96.90;;;;;;1926404;74;21145;-75
2023/06/16 10:32:26;;;;;;;10.32;5.37;;;31.70;96.80;;;;;;1901333;74;21164;-76
2023/06/16 10:35:04;;;;;;;8.78;5.53;;;31.70;97.00;;;;;;1920148;73;21065;-75
2023/06/16 10:37:36;;;;;;;9.45;5.17;;;31.60;97.20;;;;;;1908637;73;21095;-75
2023/06/16 10:40:09;;;;;;;10.85;5.40;;;31.60;97.30;;;;;;1911048;73;21080;-75
2023/06/16 10:42:42;;;;;;;7.83;5.28;;;31.60;97.60;;;;;;1901968;73;21118;-75
2023/06/16 10:45:26;;;;;;;8.10;4.53;;;31.60;97.50;;;;;;1873528;74;21130;-75
2023/06/16 10:48:03;;;;;;;11.80;9.80;;;31.60;97.60;;;;;;1910516;73;21157;-76
2023/06/16 10:50:37;;;;;;;11.18;5.30;;;31.50;97.80;;;;;;1967941;72;21108;-76
2023/06/16 10:53:19;;;;;;;10.43;4.65;;;31.50;97.50;;;;;;1947342;72;21051;-76
2023/06/16 10:56:08;;;;;;;7.55;4.90;;;31.50;97.30;;;;;;1945424;72;21073;-78
2023/06/16 10:58:39;;;;;;;7.05;4.62;;;31.60;97.30;;;;;;1928782;72;21246;-76
2023/06/16 11:01:24;;;;;;;7.80;4.70;;;31.60;97.00;;;;;;1939713;72;21169;-79
2023/06/16 11:04:01;;;;;;;7.08;4.92;;;31.50;97.00;;;;;;1922066;72;21072;-76
2023/06/16 11:06:35;;;;;;;8.10;4.83;;;31.50;96.90;;;;;;1930889;72;21083;-75
2023/06/16 11:09:07;;;;;;;9.53;5.50;;;31.50;97.00;;;;;;1913534;73;21478;-78
2023/06/16 11:11:40;;;;;;;7.65;5.37;;;31.50;97.00;;;;;;1930316;72;21234;-75
2023/06/16 11:14:13;;;;;;;10.78;5.55;;;31.50;97.00;;;;;;1895539;73;21111;-75
2023/06/16 11:16:46;;;;;;;8.65;5.72;;;31.40;96.80;;;;;;1910450;73;21163;-74
2023/06/16 11:19:20;;;;;;;8.43;5.03;;;31.40;96.90;;;;;;1933387;72;21049;-75
2023/06/16 11:21:52;;;;;;;9.35;4.92;;;31.30;97.00;;;;;;1962735;72;21139;-76
2023/06/16 11:24:30;;;;;;;9.08;5.42;;;31.30;96.90;;;;;;1903944;73;21145;-74
2023/06/16 11:27:02;;;;;;;8.18;5.28;;;31.30;97.00;;;;;;1863162;75;21128;-74
2023/06/16 11:29:36;;;;;;;11.00;5.67;;;31.20;97.00;;;;;;1911424;75;21177;-75
2023/06/16 11:32:08;;;;;;;10.95;5.60;;;31.20;97.20;;;;;;1904351;74;21533;-75
2023/06/16 11:34:42;;;;;;;10.95;5.22;;;31.20;97.30;;;;;;1903513;75;21137;-76
2023/06/16 11:37:15;;;;;;;10.75;5.85;;;31.10;97.40;;;;;;1895767;73;21106;-79
2023/06/16 11:39:49;;;;;;;10.70;5.17;;;31.10;97.50;;;;;;1925205;72;21537;-76
2023/06/16 11:42:21;;;;;;;9.05;5.67;;;31.10;97.40;;;;;;1951992;72;21162;-75
2023/06/16 11:44:54;;;;;;;12.75;6.60;;;31.10;97.30;;;;;;1916225;72;21139;-76
2023/06/16 11:47:29;;;;;;;11.00;5.22;;;31.00;97.20;;;;;;1977476;72;21190;-75
2023/06/16 11:50:07;;;;;;;10.50;5.83;;;31.00;97.20;;;;;;1981591;72;21173;-78
2023/06/16 11:52:40;;;;;;;10.43;5.57;;;31.00;97.00;;;;;;1903117;72;21209;-74
2023/06/16 11:55:15;;;;;;;15.18;11.90;;;31.00;96.90;;;;;;1897707;73;21123;-77
2023/06/16 11:57:47;;;;;;;8.15;5.35;;;30.90;96.90;;;;;;1859296;75;21685;-76
2023/06/16 12:00:20;;;;;;;8.58;5.20;;;30.90;96.90;;;;;;1947604;72;21154;-76
2023/06/16 12:02:53;;;;;;;11.20;5.28;;;30.90;96.90;;;;;;1912464;72;21084;-76
2023/06/16 12:05:27;;;;;;;11.22;5.67;;;30.90;97.00;;;;;;1938614;72;21124;-76
2023/06/16 12:08:02;;;;;;;11.95;6.75;;;30.90;97.20;;;;;;1947945;72;21098;-75
2023/06/16 12:10:40;;;;;;;10.35;5.65;;;30.80;97.30;;;;;;1934034;72;21204;-74
2023/06/16 12:13:11;;;;;;;13.32;6.42;;;30.80;97.60;;;;;;1924755;72;21236;-75
2023/06/16 12:15:44;;;;;;;10.40;7.00;;;30.80;97.70;;;;;;1937904;72;21211;-76
2023/06/16 12:18:16;;;;;;;21.85;7.83;;;30.80;97.70;;;;;;1947215;72;21056;-75
2023/06/16 12:20:48;;;;;;;9.73;6.55;;;30.70;97.90;;;;;;1935540;72;21173;-76
2023/06/16 12:23:26;;;;;;;9.03;5.65;;;30.70;97.90;;;;;;1915350;74;21143;-75
2023/06/16 12:25:57;;;;;;;14.45;6.85;;;30.70;97.80;;;;;;1899574;73;21083;-73
2023/06/16 12:28:34;;;;;;;16.17;7.30;;;30.70;97.90;;;;;;1909925;73;21574;-74
2023/06/16 12:31:06;;;;;;;13.32;8.85;;;30.60;98.20;;;;;;1955340;72;21057;-72
2023/06/16 12:33:39;;;;;;;14.73;10.18;;;30.60;98.40;;;;;;1943587;72;21084;-74
2023/06/16 12:36:13;;;;;;;16.95;10.23;;;30.50;98.50;;;;;;1916568;74;21188;-75
2023/06/16 12:41:41;;;;;;;16.93;9.58;;;30.50;98.70;;;;;;1895133;74;21805;-73
2023/06/16 12:44:12;;;;;;;12.73;7.42;;;30.50;98.70;;;;;;1900290;73;21108;-75
2023/06/16 12:46:43;;;;;;;15.50;8.05;;;30.40;98.70;;;;;;1946973;72;21120;-74
2023/06/16 12:49:14;;;;;;;12.82;7.03;;;30.40;98.70;;;;;;1937706;72;21129;-74
2023/06/16 12:51:46;;;;;;;11.30;6.45;;;30.40;98.50;;;;;;1923109;72;21223;-76
2023/06/16 12:54:18;;;;;;;12.88;6.40;;;30.40;98.30;;;;;;1928839;73;21174;-76
2023/06/16 12:56:50;;;;;;;9.33;5.30;;;30.40;98.20;;;;;;1958979;72;21126;-77
2023/06/16 12:59:23;;;;;;;15.68;5.50;;;30.50;98.00;;;;;;1935375;73;21149;-75
2023/06/16 13:01:54;;;;;;;10.05;5.03;;;30.50;98.10;;;;;;1930426;73;21190;-75
2023/06/16 13:04:27;;;;;;;10.18;5.00;;;30.50;98.10;;;;;;1930462;73;21123;-75
2023/06/16 13:06:58;;;;;;;6.58;4.17;;;30.40;98.10;;;;;;1927970;73;21153;-75
2023/06/16 13:09:30;;;;;;;7.40;4.08;;;30.40;98.30;;;;;;1929543;73;21229;-74
2023/06/16 13:12:03;;;;;;;7.97;3.72;;;30.30;98.50;;;;;;1934889;72;21196;-73
2023/06/16 13:14:37;;;;;;;9.63;3.67;;;30.10;98.70;;;;;;1924940;73;21138;-76
2023/06/16 13:17:09;;;;;;;10.28;4.37;;;30.10;98.90;;;;;;1939562;73;21124;-74
2023/06/16 13:19:41;;;;;;;9.33;4.53;;;30.10;99.00;;;;;;1926669;73;21079;-74
2023/06/16 13:22:17;;;;;;;9.38;4.33;;;30.00;99.80;;;;;;1932982;73;21232;-74